createdAt,value
2023-03-18T00:00:18.386Z,13.50
2023-03-18T00:03:06.175Z,21.10
2023-03-18T00:05:33.930Z,16.40
2023-03-18T00:08:02.327Z,18.70
2023-03-18T00:10:29.069Z,16.20
2023-03-18T00:12:56.024Z,15.70
2023-03-18T00:15:22.623Z,13.10
2023-03-18T00:17:49.082Z,14.90
2023-03-18T00:20:17.822Z,11.70
2023-03-18T00:22:44.851Z,19.10
2023-03-18T00:25:14.790Z,15.30
2023-03-18T00:27:41.324Z,8.80
2023-03-18T00:30:09.566Z,17.60
2023-03-18T00:32:36.122Z,17.10
2023-03-18T00:35:03.182Z,19.20
2023-03-18T00:37:30.113Z,17.10
2023-03-18T00:40:06.561Z,15.50
2023-03-18T00:42:38.695Z,9.30
2023-03-18T00:45:10.388Z,14.70
2023-03-18T00:47:37.893Z,14.30
2023-03-18T00:50:07.745Z,14.20
2023-03-18T00:52:35.409Z,12.90
2023-03-18T00:55:01.910Z,9.90
2023-03-18T00:57:29.120Z,13.50
2023-03-18T00:59:58.562Z,16.20
2023-03-18T01:02:26.958Z,13.40
2023-03-18T01:04:53.551Z,11.90
2023-03-18T01:07:20.004Z,17.40
2023-03-18T01:09:46.397Z,16.20
2023-03-18T01:12:13.332Z,14.00
2023-03-18T01:14:40.604Z,17.70
2023-03-18T01:17:08.188Z,10.30
2023-03-18T01:19:36.901Z,16.10
2023-03-18T01:22:03.566Z,15.10
2023-03-18T01:24:30.433Z,13.70
2023-03-18T01:26:57.540Z,8.10
2023-03-18T01:29:24.748Z,11.50
2023-03-18T01:31:54.312Z,11.10
2023-03-18T01:34:21.106Z,15.20
2023-03-18T01:36:47.696Z,16.10
2023-03-18T01:39:14.989Z,15.30
2023-03-18T01:41:41.787Z,16.50
2023-03-18T01:44:18.576Z,16.10
2023-03-18T01:46:50.362Z,10.00
2023-03-18T01:49:45.819Z,12.90
2023-03-18T01:52:21.664Z,14.40
2023-03-18T01:55:12.145Z,14.50
2023-03-18T01:57:38.849Z,16.70
2023-03-18T02:00:06.775Z,17.60
2023-03-18T02:02:33.461Z,15.10
2023-03-18T02:05:05.703Z,15.70
2023-03-18T02:07:35.358Z,10.00
2023-03-18T02:10:10.377Z,13.20
2023-03-18T02:12:41.719Z,11.00
2023-03-18T02:15:19.048Z,13.60
2023-03-18T02:17:55.526Z,13.60
2023-03-18T02:20:50.162Z,15.10
2023-03-18T02:23:37.703Z,15.50
2023-03-18T02:26:28.273Z,13.40
2023-03-18T02:29:02.867Z,12.50
2023-03-18T02:31:31.738Z,12.60
2023-03-18T02:34:00.240Z,14.00
2023-03-18T02:36:31.363Z,15.70
2023-03-18T02:38:59.686Z,11.70
2023-03-18T02:41:32.653Z,16.70
2023-03-18T02:43:59.570Z,15.10
2023-03-18T02:46:51.629Z,15.60
2023-03-18T02:49:20.910Z,16.10
2023-03-18T02:51:48.755Z,17.40
2023-03-18T02:54:23.153Z,13.80
2023-03-18T02:56:50.801Z,16.30
2023-03-18T02:59:19.577Z,19.50
2023-03-18T03:01:50.360Z,16.70
2023-03-18T03:04:21.450Z,16.60
2023-03-18T03:06:48.836Z,16.40
2023-03-18T03:09:16.517Z,17.80
2023-03-18T03:11:45.670Z,16.90
2023-03-18T03:14:14.968Z,18.30
2023-03-18T03:16:43.121Z,17.80
2023-03-18T03:19:09.879Z,13.00
2023-03-18T03:21:36.693Z,15.10
2023-03-18T03:24:06.342Z,11.20
2023-03-18T03:26:34.441Z,13.90
2023-03-18T03:29:04.025Z,17.00
2023-03-18T03:31:31.074Z,19.10
2023-03-18T03:33:58.003Z,14.30
2023-03-18T03:36:24.713Z,16.40
2023-03-18T03:38:51.118Z,14.00
2023-03-18T03:41:19.550Z,18.40
2023-03-18T03:43:46.037Z,16.70
2023-03-18T03:46:12.572Z,15.40
2023-03-18T03:48:39.435Z,13.40
2023-03-18T03:51:06.850Z,15.50
2023-03-18T03:53:35.433Z,14.00
2023-03-18T03:56:03.803Z,18.80
2023-03-18T03:58:30.545Z,15.10
2023-03-18T04:00:57.883Z,15.50
2023-03-18T04:03:25.983Z,15.90
2023-03-18T04:05:52.564Z,16.00
2023-03-18T04:08:19.317Z,11.70
2023-03-18T04:10:46.233Z,14.00
2023-03-18T04:13:13.090Z,10.80
2023-03-18T04:15:39.548Z,13.00
2023-03-18T04:18:06.514Z,17.00
2023-03-18T04:20:35.342Z,13.90
2023-03-18T04:23:02.188Z,16.50
2023-03-18T04:25:29.462Z,16.30
2023-03-18T04:27:56.902Z,16.10
2023-03-18T04:30:25.434Z,15.00
2023-03-18T04:33:01.965Z,16.20
2023-03-18T04:35:29.941Z,13.10
2023-03-18T04:37:58.908Z,15.50
2023-03-18T04:40:26.911Z,15.00
2023-03-18T04:42:54.681Z,17.80
2023-03-18T04:45:23.155Z,14.20
2023-03-18T04:47:51.154Z,18.00
2023-03-18T04:50:19.207Z,16.30
2023-03-18T04:52:47.454Z,14.10
2023-03-18T04:55:18.014Z,15.20
2023-03-18T04:57:46.321Z,15.60
2023-03-18T05:00:23.752Z,17.10
2023-03-18T05:02:51.584Z,18.70
2023-03-18T05:05:19.530Z,14.10
2023-03-18T05:07:47.350Z,15.00
2023-03-18T05:10:15.993Z,9.70
2023-03-18T05:12:43.791Z,13.70
2023-03-18T05:15:12.178Z,16.40
2023-03-18T05:17:40.952Z,17.90
2023-03-18T05:20:11.589Z,13.80
2023-03-18T05:22:40.085Z,14.60
2023-03-18T05:25:11.267Z,11.30
2023-03-18T05:27:39.857Z,13.40
2023-03-18T05:30:11.085Z,15.20
2023-03-18T05:32:39.697Z,12.40
2023-03-18T05:35:09.496Z,15.70
2023-03-18T05:37:37.587Z,13.60
2023-03-18T05:40:11.789Z,17.20
2023-03-18T05:42:53.529Z,17.40
2023-03-18T05:45:24.594Z,14.50
2023-03-18T05:47:53.155Z,13.20
2023-03-18T05:50:36.491Z,18.20
2023-03-18T05:53:06.947Z,12.60
2023-03-18T05:55:35.748Z,15.40
2023-03-18T05:58:04.550Z,16.20
2023-03-18T06:00:32.813Z,10.50
2023-03-18T06:03:01.963Z,16.90
2023-03-18T06:05:31.505Z,12.10
2023-03-18T06:08:01.342Z,14.90
2023-03-18T06:10:30.167Z,14.40
2023-03-18T06:12:58.009Z,15.00
2023-03-18T06:15:25.937Z,13.90
2023-03-18T06:17:53.883Z,14.10
2023-03-18T06:20:22.591Z,16.80
2023-03-18T06:22:50.650Z,10.30
2023-03-18T06:25:21.429Z,15.50
2023-03-18T06:27:51.144Z,13.00
2023-03-18T06:30:19.339Z,8.60
2023-03-18T06:32:53.549Z,12.80
2023-03-18T06:35:23.297Z,14.00
2023-03-18T06:37:51.388Z,15.20
2023-03-18T06:40:19.445Z,14.80
2023-03-18T06:42:47.241Z,14.90
2023-03-18T06:45:15.518Z,16.90
2023-03-18T06:47:44.798Z,15.50
2023-03-18T06:50:13.766Z,13.10
2023-03-18T06:52:42.395Z,13.20
2023-03-18T06:55:11.285Z,12.20
2023-03-18T06:57:39.179Z,9.80
2023-03-18T07:00:09.114Z,15.30
2023-03-18T07:02:39.390Z,14.70
2023-03-18T07:05:09.005Z,14.30
2023-03-18T07:07:39.926Z,10.00
2023-03-18T07:10:18.131Z,13.10
2023-03-18T07:12:48.062Z,18.50
2023-03-18T07:15:17.333Z,13.80
2023-03-18T07:17:45.245Z,15.50
2023-03-18T07:20:14.127Z,12.60
2023-03-18T07:22:45.358Z,8.70
2023-03-18T07:25:13.814Z,9.80
2023-03-18T07:27:42.531Z,18.40
2023-03-18T07:30:11.658Z,12.80
2023-03-18T07:32:39.598Z,14.00
2023-03-18T07:35:10.916Z,15.50
2023-03-18T07:37:40.372Z,9.10
2023-03-18T07:40:11.779Z,15.70
2023-03-18T07:42:39.705Z,13.30
2023-03-18T07:45:09.549Z,12.50
2023-03-18T07:47:37.951Z,13.40
2023-03-18T07:50:06.819Z,14.00
2023-03-18T07:52:34.781Z,14.30
2023-03-18T07:55:02.547Z,14.40
2023-03-18T07:57:30.489Z,11.70
2023-03-18T07:59:58.860Z,14.60
2023-03-18T08:02:28.395Z,14.70
2023-03-18T08:04:56.880Z,11.20
2023-03-18T08:07:25.535Z,12.90
2023-03-18T08:09:53.907Z,11.50
2023-03-18T08:12:22.118Z,13.70
2023-03-18T08:14:49.893Z,13.40
2023-03-18T08:17:18.389Z,15.00
2023-03-18T08:19:47.053Z,17.10
2023-03-18T08:22:16.102Z,14.70
2023-03-18T08:24:45.712Z,8.10
2023-03-18T08:27:13.717Z,16.30
2023-03-18T08:29:41.683Z,13.80
2023-03-18T08:32:10.274Z,16.80
2023-03-18T08:34:38.254Z,16.10
2023-03-18T08:37:06.270Z,15.30
2023-03-18T08:39:34.920Z,19.80
2023-03-18T08:42:04.703Z,16.80
2023-03-18T08:44:33.265Z,15.40
2023-03-18T08:47:01.658Z,15.20
2023-03-18T08:49:29.614Z,11.70
2023-03-18T08:51:57.600Z,11.10
2023-03-18T08:54:26.171Z,19.40
2023-03-18T08:56:55.483Z,13.20
2023-03-18T08:59:23.493Z,15.10
2023-03-18T09:01:51.733Z,12.50
2023-03-18T09:04:20.373Z,14.10
2023-03-18T09:06:49.079Z,17.80
2023-03-18T09:09:17.628Z,11.70
2023-03-18T09:11:46.559Z,17.90
2023-03-18T09:14:14.530Z,14.70
2023-03-18T09:16:42.552Z,9.70
2023-03-18T09:19:10.503Z,10.60
2023-03-18T09:21:39.055Z,11.90
2023-03-18T09:24:07.630Z,18.10
2023-03-18T09:26:35.531Z,15.70
2023-03-18T09:29:03.420Z,16.20
2023-03-18T09:31:31.810Z,13.90
2023-03-18T09:33:59.780Z,18.40
2023-03-18T09:36:28.677Z,12.30
2023-03-18T09:38:56.582Z,8.80
2023-03-18T09:42:09.476Z,14.60
2023-03-18T09:44:41.848Z,12.40
2023-03-18T09:47:38.033Z,12.50
2023-03-18T09:50:52.755Z,14.60
2023-03-18T09:53:34.730Z,14.10
2023-03-18T09:56:04.673Z,10.40
2023-03-18T09:58:53.907Z,18.10
2023-03-18T10:01:26.435Z,16.00
2023-03-18T10:04:16.314Z,17.60
2023-03-18T10:06:45.762Z,16.50
2023-03-18T10:09:25.124Z,12.10
2023-03-18T10:12:05.318Z,12.30
2023-03-18T10:14:41.486Z,14.90
2023-03-18T10:17:36.216Z,12.10
2023-03-18T10:20:29.954Z,16.00
2023-03-18T10:23:17.149Z,15.10
2023-03-18T10:26:05.479Z,16.60
2023-03-18T10:29:01.845Z,13.60
2023-03-18T10:31:57.994Z,8.70
2023-03-18T10:34:37.850Z,17.20
2023-03-18T10:37:31.926Z,13.00
2023-03-18T10:40:00.506Z,15.50
2023-03-18T10:42:32.911Z,14.50
2023-03-18T10:45:27.413Z,16.20
2023-03-18T10:48:11.220Z,16.00
2023-03-18T10:51:16.956Z,15.20
2023-03-18T10:54:23.121Z,16.90
2023-03-18T10:56:52.918Z,15.50
2023-03-18T10:59:24.942Z,14.80
2023-03-18T11:02:01.863Z,17.40
2023-03-18T11:04:46.059Z,10.80
2023-03-18T11:07:21.779Z,13.60
2023-03-18T11:09:49.820Z,10.20
2023-03-18T11:12:27.344Z,9.70
2023-03-18T11:14:56.567Z,10.10
2023-03-18T11:17:35.376Z,14.30
2023-03-18T11:20:14.173Z,11.80
2023-03-18T11:22:52.294Z,12.50
2023-03-18T11:25:26.644Z,13.80
2023-03-18T11:28:03.985Z,14.20
2023-03-18T11:30:49.559Z,12.40
2023-03-18T11:33:18.043Z,15.40
2023-03-18T11:35:54.798Z,12.10
2023-03-18T11:38:33.201Z,12.70
2023-03-18T11:41:37.537Z,12.40
2023-03-18T11:44:19.287Z,8.90
2023-03-18T11:46:51.240Z,12.00
2023-03-18T11:49:28.515Z,15.40
2023-03-18T11:52:32.525Z,11.70
2023-03-18T11:55:30.107Z,14.90
2023-03-18T11:58:33.052Z,12.30
2023-03-18T12:01:20.162Z,13.30
2023-03-18T12:04:57.430Z,15.60
2023-03-18T12:07:45.156Z,11.60
2023-03-18T12:10:41.573Z,15.60
2023-03-18T12:13:39.712Z,15.50
2023-03-18T12:16:29.172Z,11.50
2023-03-18T12:19:33.686Z,11.90
2023-03-18T12:22:59.087Z,11.90
2023-03-18T12:25:59.287Z,18.80
2023-03-18T12:28:57.269Z,9.90
2023-03-18T12:31:40.870Z,15.60
2023-03-18T12:34:41.170Z,17.20
2023-03-18T12:37:29.038Z,12.90
2023-03-18T12:41:25.802Z,18.40
2023-03-18T12:44:22.065Z,11.90
2023-03-18T12:47:06.956Z,12.80
2023-03-18T12:49:41.602Z,14.60
2023-03-18T12:52:43.633Z,11.50
2023-03-18T12:55:36.657Z,13.20
2023-03-18T12:58:18.271Z,13.80
2023-03-18T13:00:53.424Z,13.50
2023-03-18T13:03:41.149Z,12.30
2023-03-18T13:06:27.240Z,12.00
2023-03-18T13:09:21.965Z,14.90
2023-03-18T13:12:43.515Z,11.80
2023-03-18T13:15:28.404Z,10.80
2023-03-18T13:18:06.076Z,13.60
2023-03-18T13:20:38.845Z,15.30
2023-03-18T13:23:35.291Z,15.40
2023-03-18T13:26:09.839Z,15.40
2023-03-18T13:29:16.766Z,13.30
2023-03-18T13:32:16.493Z,13.30
2023-03-18T13:35:40.771Z,14.90
2023-03-18T13:38:58.066Z,17.20
2023-03-18T13:41:52.110Z,11.90
2023-03-18T13:44:42.521Z,11.30
2023-03-18T13:47:19.741Z,12.80
2023-03-18T13:49:49.130Z,14.40
2023-03-18T13:52:36.310Z,13.20
2023-03-18T13:55:23.507Z,13.10
2023-03-18T13:58:00.840Z,14.00
2023-03-18T14:01:03.986Z,11.60
2023-03-18T14:03:44.375Z,12.30
2023-03-18T14:06:35.548Z,15.90
2023-03-18T14:09:28.863Z,12.00
2023-03-18T14:12:31.011Z,15.00
2023-03-18T14:15:14.060Z,12.70
2023-03-18T14:17:59.005Z,15.30
2023-03-18T14:20:38.815Z,10.10
2023-03-18T14:23:39.368Z,14.40
2023-03-18T14:26:27.706Z,15.30
2023-03-18T14:29:07.678Z,15.70
2023-03-18T14:31:38.549Z,12.00
2023-03-18T14:34:19.115Z,11.00
2023-03-18T14:36:52.974Z,13.20
2023-03-18T14:40:00.187Z,16.90
2023-03-18T14:42:48.389Z,13.80
2023-03-18T14:45:35.959Z,15.50
2023-03-18T14:48:18.400Z,14.90
2023-03-18T14:50:52.403Z,14.30
2023-03-18T14:53:46.892Z,17.90
2023-03-18T14:56:23.516Z,14.90
2023-03-18T14:58:53.559Z,15.30
2023-03-18T15:01:41.004Z,17.10
2023-03-18T15:04:23.888Z,16.70
2023-03-18T15:07:01.622Z,12.50
2023-03-18T15:09:34.771Z,15.80
2023-03-18T15:12:18.266Z,15.00
2023-03-18T15:14:46.457Z,19.40
2023-03-18T15:17:17.023Z,17.10
2023-03-18T15:19:46.441Z,16.20
2023-03-18T15:22:26.260Z,16.80
2023-03-18T15:25:02.524Z,12.90
2023-03-18T15:27:34.736Z,16.20
2023-03-18T15:30:07.305Z,16.00
2023-03-18T15:32:51.785Z,16.50
2023-03-18T15:35:25.501Z,17.80
2023-03-18T15:38:17.472Z,18.60
2023-03-18T15:40:47.973Z,20.20
2023-03-18T15:43:31.206Z,17.20
2023-03-18T15:46:07.728Z,20.40
2023-03-18T15:48:44.253Z,18.80
2023-03-18T15:51:40.284Z,17.60
2023-03-18T15:54:28.416Z,19.60
2023-03-18T15:56:59.275Z,17.40
2023-03-18T15:59:32.559Z,14.50
2023-03-18T16:02:02.268Z,18.10
2023-03-18T16:04:32.942Z,19.20
2023-03-18T16:07:01.063Z,16.70
2023-03-18T16:09:29.608Z,18.30
2023-03-18T16:12:02.455Z,17.50
2023-03-18T16:14:43.074Z,16.30
2023-03-18T16:17:14.448Z,17.10
2023-03-18T16:19:45.660Z,19.30
2023-03-18T16:22:15.382Z,20.40
2023-03-18T16:24:44.173Z,13.40
2023-03-18T16:27:41.220Z,21.80
2023-03-18T16:30:40.325Z,18.50
2023-03-18T16:33:14.338Z,17.50
2023-03-18T16:35:43.696Z,19.80
2023-03-18T16:38:17.745Z,20.50
2023-03-18T16:40:46.957Z,22.10
2023-03-18T16:43:28.528Z,20.80
2023-03-18T16:46:03.847Z,18.00
2023-03-18T16:48:32.135Z,19.10
2023-03-18T16:51:02.544Z,20.00
2023-03-18T16:53:31.886Z,21.10
2023-03-18T16:56:20.849Z,20.40
2023-03-18T16:58:48.722Z,20.70
2023-03-18T17:01:17.298Z,19.90
2023-03-18T17:03:45.778Z,19.00
2023-03-18T17:06:14.791Z,24.90
2023-03-18T17:08:42.852Z,23.50
2023-03-18T17:11:21.422Z,25.00
2023-03-18T17:13:49.553Z,21.50
2023-03-18T17:16:22.290Z,23.70
2023-03-18T17:18:50.077Z,20.90
2023-03-18T17:21:17.939Z,23.90
2023-03-18T17:23:47.746Z,24.50
2023-03-18T17:26:26.101Z,24.80
2023-03-18T17:28:54.694Z,21.30
2023-03-18T17:31:22.853Z,21.20
2023-03-18T17:33:50.787Z,20.80
2023-03-18T17:36:18.755Z,22.80
2023-03-18T17:38:47.413Z,23.30
2023-03-18T17:41:21.338Z,25.60
2023-03-18T17:43:49.732Z,24.10
2023-03-18T17:46:18.943Z,25.30
2023-03-18T17:48:46.940Z,28.30
2023-03-18T17:51:23.770Z,25.50
2023-03-18T17:53:59.276Z,23.80
2023-03-18T17:56:28.440Z,30.40
2023-03-18T17:58:56.300Z,30.40
2023-03-18T18:01:28.868Z,28.90
2023-03-18T18:03:59.954Z,31.50
2023-03-18T18:06:30.003Z,31.40
2023-03-18T18:09:01.316Z,33.20
2023-03-18T18:11:35.853Z,36.50
2023-03-18T18:14:25.107Z,34.90
2023-03-18T18:16:56.180Z,38.30
2023-03-18T18:19:24.483Z,43.60
2023-03-18T18:21:53.290Z,36.60
2023-03-18T18:24:30.922Z,34.70
2023-03-18T18:26:59.521Z,42.70
2023-03-18T18:29:29.590Z,54.00
2023-03-18T18:31:57.977Z,52.60
2023-03-18T18:34:26.237Z,46.00
2023-03-18T18:36:54.526Z,43.80
2023-03-18T18:39:23.205Z,47.70
2023-03-18T18:41:51.536Z,48.70
2023-03-18T18:44:20.145Z,48.00
2023-03-18T18:46:47.995Z,47.50
2023-03-18T18:49:22.816Z,43.90
2023-03-18T18:51:54.829Z,42.80
2023-03-18T18:54:25.897Z,50.00
2023-03-18T18:56:53.774Z,60.70
2023-03-18T18:59:33.963Z,53.40
2023-03-18T19:02:38.645Z,51.10
2023-03-18T19:05:08.290Z,57.00
2023-03-18T19:07:38.341Z,55.80
2023-03-18T19:10:14.880Z,57.30
2023-03-18T19:12:44.722Z,53.20
2023-03-18T19:15:15.445Z,48.70
2023-03-18T19:17:45.308Z,54.90
2023-03-18T19:20:34.052Z,44.10
2023-03-18T19:23:03.325Z,44.70
2023-03-18T19:25:31.611Z,43.60
2023-03-18T19:28:00.466Z,41.80
2023-03-18T19:30:28.868Z,48.20
2023-03-18T19:32:59.855Z,37.90
2023-03-18T19:35:27.900Z,44.10
2023-03-18T19:37:56.276Z,40.80
2023-03-18T19:40:31.855Z,35.10
2023-03-18T19:43:00.419Z,36.00
2023-03-18T19:45:29.170Z,48.30
2023-03-18T19:47:57.175Z,37.20
2023-03-18T19:50:27.497Z,40.00
2023-03-18T19:52:59.266Z,37.50
2023-03-18T19:55:36.228Z,31.50
2023-03-18T19:58:04.418Z,34.10
2023-03-18T20:00:32.600Z,28.40
2023-03-18T20:03:01.825Z,31.60
2023-03-18T20:05:41.866Z,35.20
2023-03-18T20:08:10.064Z,30.50
2023-03-18T20:10:44.209Z,33.60
2023-03-18T20:13:17.212Z,32.90
2023-03-18T20:15:45.120Z,35.30
2023-03-18T20:18:17.173Z,30.80
2023-03-18T20:20:49.812Z,34.30
2023-03-18T20:23:23.935Z,31.00
2023-03-18T20:25:53.845Z,29.90
2023-03-18T20:28:25.805Z,28.40
2023-03-18T20:30:56.512Z,31.70
2023-03-18T20:33:25.057Z,33.90
2023-03-18T20:35:56.637Z,32.60
2023-03-18T20:38:29.701Z,34.90
2023-03-18T20:40:58.247Z,29.00
2023-03-18T20:43:28.767Z,32.00
2023-03-18T20:45:59.573Z,38.60
2023-03-18T20:48:28.265Z,34.20
2023-03-18T20:50:56.624Z,33.80
2023-03-18T20:53:28.643Z,35.60
2023-03-18T20:55:58.297Z,31.70
2023-03-18T20:58:28.244Z,30.30
2023-03-18T21:00:57.641Z,30.40
2023-03-18T21:03:34.040Z,31.20
2023-03-18T21:06:04.296Z,34.30
2023-03-18T21:08:33.294Z,37.00
2023-03-18T21:11:04.468Z,34.70
2023-03-18T21:13:36.379Z,34.80
2023-03-18T21:16:11.858Z,36.50
2023-03-18T21:18:42.194Z,34.80
2023-03-18T21:21:25.031Z,32.80
2023-03-18T21:23:56.843Z,44.70
2023-03-18T21:26:25.028Z,40.80
2023-03-18T21:28:53.213Z,47.40
2023-03-18T21:31:36.110Z,45.10
2023-03-18T21:34:04.493Z,47.00
2023-03-18T21:36:32.780Z,44.40
2023-03-18T21:39:01.101Z,42.20
2023-03-18T21:41:32.033Z,45.90
2023-03-18T21:43:59.975Z,42.80
2023-03-18T21:46:30.604Z,45.70
2023-03-18T21:48:58.830Z,50.60
2023-03-18T21:51:39.201Z,46.30
2023-03-18T21:54:20.587Z,44.20
2023-03-18T21:56:48.815Z,45.30
2023-03-18T21:59:16.712Z,42.40
2023-03-18T22:01:45.354Z,36.80
2023-03-18T22:04:13.271Z,36.10
2023-03-18T22:06:41.582Z,39.10
2023-03-18T22:09:09.991Z,37.00
2023-03-18T22:11:38.046Z,36.50
2023-03-18T22:14:05.941Z,33.90
2023-03-18T22:16:33.698Z,30.40
2023-03-18T22:19:01.599Z,31.50
2023-03-18T22:21:30.892Z,30.60
2023-03-18T22:24:00.388Z,29.20
2023-03-18T22:26:28.410Z,29.70
2023-03-18T22:28:56.406Z,28.30
2023-03-18T22:31:27.069Z,30.80
2023-03-18T22:33:55.420Z,24.80
2023-03-18T22:36:25.636Z,28.30
2023-03-18T22:38:57.122Z,25.70
2023-03-18T22:41:31.367Z,30.40
2023-03-18T22:44:00.518Z,29.70
2023-03-18T22:46:30.177Z,27.50
2023-03-18T22:49:05.382Z,29.30
2023-03-18T22:51:47.957Z,26.10
2023-03-18T22:54:19.133Z,26.10
2023-03-18T22:56:47.017Z,29.00
2023-03-18T22:59:14.874Z,29.00
2023-03-18T23:01:42.850Z,29.60
2023-03-18T23:04:12.658Z,24.60
2023-03-18T23:06:42.174Z,29.20
2023-03-18T23:09:10.212Z,24.70
2023-03-18T23:11:38.132Z,25.70
2023-03-18T23:14:10.107Z,26.00
2023-03-18T23:16:38.061Z,28.50
2023-03-18T23:19:06.076Z,25.30
2023-03-18T23:21:36.554Z,25.40
2023-03-18T23:24:10.018Z,28.90
2023-03-18T23:26:37.825Z,25.60
2023-03-18T23:29:05.681Z,25.30
2023-03-18T23:31:33.606Z,25.30
2023-03-18T23:34:01.394Z,28.10
2023-03-18T23:36:29.299Z,23.00
2023-03-18T23:38:57.112Z,24.30
2023-03-18T23:41:24.958Z,24.30
2023-03-18T23:43:52.877Z,25.10
2023-03-18T23:46:21.000Z,24.00
2023-03-18T23:48:48.955Z,27.00
2023-03-18T23:51:16.817Z,25.40
2023-03-18T23:53:44.830Z,26.20
2023-03-18T23:56:13.748Z,25.20
2023-03-18T23:58:41.867Z,24.60
